Airfield :
LOGIN :

Register | Disclaimer

   EN    FR    IT 

 










Legend :    VFR   Marginal VFR   IFR   Intensive IFR   Very Intensive IFR
Visi :
Ceiling :
>= 8 km
>= 3000ft
5 to 8 km
1000 to 3000 ft
1500m to 5 km
500 to 1000 ft
800 to 1500m
200 to 500 ft
< 800m
< 200 ft
Symbols :   Thunderstorms  Fog  Heavy snow  Heavy precipitations  Wind > 20 kt
SIGMETs :     Misc.  Thunderstorms  Icing  Turbulence  Mountain Waves  Volcanic Ashes







- Airport Elevation : 28 ft
- IATA code : SOZ
- Download approach charts


LFKS - Solenzara

CURRENT METAR :
  • 220030Z AUTO 27004KT CAVOK 23/19 Q1012

EXPIRED METARs :
  • 220000Z AUTO 27004KT CAVOK 23/20 Q1012
  • 212330Z AUTO 28004KT 240V310 CAVOK 24/20 Q1012
  • 212300Z AUTO 27004KT 250V310 CAVOK 24/20 Q1012
  • 212230Z AUTO 27004KT CAVOK 24/21 Q1012
  • 212200Z AUTO VRB02KT 9999 FEW010 25/21 Q1011

TAF TAF LFKS
Valid from the 21 at 15:00 until the 22 at 15:00 UTC


211400Z 2115/2215 13010KT 9999 FEW020 SCT030
BECMG 2119/2121 27003KT
No reported NOTAMs for that airfield.



MET'MAP, your aeronautical weather chart ! - Copyright ORBIFLY December 2007 - Disclaimer

ORBIFLY MET'MAP TEAM :

Programming & Development : Alexandra Zaïnal
Concept & Development : Baudouin d'Aumeries
Co-Development & Prog : Marc-Olivier Méhu
Technical & hardware support : Manuel Goepfert

Contact : metmap@orbifly.com




SOURCES & CREDITS :

   NOAA